Time;durP1;ratioP1;P1;durP2;ratioP2;P2;SDS_P1;SDS_P2;PMS_P1;PMS_P2;Temp;Humidity;BMP_temperature;BMP_pressure;BME280_temperature;BME280_humidity;BME280_pressure;Samples;Min_cycle;Max_cycle;Signal;HPM_P1;HPM_P2
2021/12/02 00:00:51;;;;;;;;;;;3.80;99.90;;;;;;5011802;28;20024;-90
2021/12/02 00:03:33;;;;;;;;;;;;;;;;;;;;;
2021/12/02 00:06:38;;;;;;;;;;;3.90;99.90;;;;;;5013341;28;20289;-92
2021/12/02 00:09:40;;;;;;;;;;;;;;;;;;;;;
2021/12/02 00:12:24;;;;;;;;;;;;;;;;;;;;;
2021/12/02 00:22:00;;;;;;;;;;;;;;;;;;;;;
2021/12/02 00:24:34;;;;;;;;;;;;;;;;;;;;;
2021/12/02 00:27:11;;;;;;;;;;;3.80;99.90;;;;;;5014569;28;19925;-89
2021/12/02 00:32:58;;;;;;;;;;;;;;;;;;;;;
2021/12/02 00:35:33;;;;;;;;;;;3.70;99.90;;;;;;4999014;28;19932;-90
2021/12/02 00:38:07;;;;;;;;;;;3.80;99.90;;;;;;4984130;28;19926;-90
2021/12/02 00:41:04;;;;;;;;;;;3.80;99.90;;;;;;4981145;28;19926;-90
2021/12/02 00:43:42;;;;;;;;;;;3.80;99.90;;;;;;4996377;28;19969;-89
2021/12/02 00:46:21;;;;;;;;;;;3.80;99.90;;;;;;5013354;28;19925;-92
2021/12/02 00:49:04;;;;;;;;;;;;;;;;;;;;;
2021/12/02 00:51:36;;;;;;;;;;;3.80;99.90;;;;;;5014777;28;20012;-90
2021/12/02 00:54:25;;;;;;;;;;;3.80;99.90;;;;;;4982864;28;20270;-89
2021/12/02 00:57:19;;;;;;;;;;;3.80;99.90;;;;;;4991583;28;20347;-91
2021/12/02 01:00:03;;;;;;;;;;;;;;;;;;;;;
2021/12/02 01:02:38;;;;;;;;;;;3.70;99.90;;;;;;4998993;28;20108;-90
2021/12/02 01:05:37;;;;;;;;;;;;;;;;;;;;;
2021/12/02 01:11:12;;;;;;;;;;;;;;;;;;;;;
2021/12/02 01:13:50;;;;;;;;;;;3.70;99.90;;;;;;5015194;28;20090;-90
2021/12/02 01:16:34;;;;;;;;;;;3.70;99.90;;;;;;4982076;28;19937;-90
2021/12/02 01:19:20;;;;;;;;;;;3.70;99.90;;;;;;4981795;28;19925;-90
2021/12/02 01:22:09;;;;;;;;;;;3.70;99.90;;;;;;4986234;28;19947;-91
2021/12/02 01:25:14;;;;;;;;;;;3.70;99.90;;;;;;4984878;28;20263;-90
2021/12/02 01:30:58;;;;;;;;;;;3.80;99.90;;;;;;5007666;28;19930;-89
2021/12/02 01:33:51;;;;;;;;;;;3.80;99.90;;;;;;4980700;28;19925;-92
2021/12/02 01:36:47;;;;;;;;;;;3.90;99.90;;;;;;4997312;28;19952;-89
2021/12/02 01:39:38;;;;;;;;;;;;;;;;;;;;;
2021/12/02 01:42:06;;;;;;;;;;;4.00;99.90;;;;;;4998295;28;20026;-90
2021/12/02 01:45:03;;;;;;;;;;;;;;;;;;;;;
2021/12/02 01:47:52;;;;;;;;;;;4.00;99.90;;;;;;4998060;28;19925;-89
2021/12/02 01:50:24;;;;;;;;;;;4.10;99.90;;;;;;4981863;28;19925;-89
2021/12/02 01:56:42;;;;;;;;;;;4.10;99.90;;;;;;5000878;28;19992;-89
2021/12/02 01:59:35;;;;;;;;;;;4.10;99.90;;;;;;5012773;28;19925;-90
2021/12/02 02:02:12;;;;;;;;;;;;;;;;;;;;;
2021/12/02 02:05:10;;;;;;;;;;;4.00;99.90;;;;;;4997484;28;19929;-90
2021/12/02 02:10:55;;;;;;;;;;;4.00;99.90;;;;;;4993752;28;19945;-90
2021/12/02 02:14:04;;;;;;;;;;;4.00;99.90;;;;;;4981607;28;19925;-90
2021/12/02 02:16:48;;;;;;;;;;;;;;;;;;;;;
2021/12/02 02:22:47;;;;;;;;;;;3.90;99.90;;;;;;4996234;28;20016;-90
2021/12/02 02:26:26;;;;;;;;;;;3.80;99.90;;;;;;4996138;28;20390;-90
2021/12/02 02:28:40;;;;;;;;;;;;;;;;;;;;;
2021/12/02 02:34:33;;;;;;;;;;;3.60;99.90;;;;;;5012595;28;19932;-90
2021/12/02 02:37:22;;;;;;;;;;;3.50;99.90;;;;;;4979802;28;20291;-90
2021/12/02 02:40:21;;;;;;;;;;;;;;;;;;;;;
2021/12/02 02:43:33;;;;;;;;;;;;;;;;;;;;;
2021/12/02 02:45:58;;;;;;;;;;;3.50;99.90;;;;;;5005895;28;20305;-90
2021/12/02 02:48:46;;;;;;;;;;;3.40;99.90;;;;;;4991480;28;20255;-89
2021/12/02 02:51:49;;;;;;;;;;;3.40;99.90;;;;;;4996604;28;19926;-90
2021/12/02 02:54:47;;;;;;;;;;;3.30;99.90;;;;;;4986290;28;19976;-89
2021/12/02 02:57:28;;;;;;;;;;;;;;;;;;;;;
2021/12/02 03:00:22;;;;;;;;;;;3.10;99.90;;;;;;5001414;28;20041;-89
2021/12/02 03:03:34;;;;;;;;;;;3.20;99.90;;;;;;5000754;28;20382;-90
2021/12/02 03:12:54;;;;;;;;;;;3.00;99.90;;;;;;5004199;28;19933;-90
2021/12/02 03:18:59;;;;;;;;;;;2.90;99.90;;;;;;5012391;28;20461;-89
2021/12/02 03:21:30;;;;;;;;;;;2.90;99.90;;;;;;4999376;28;20275;-89
2021/12/02 03:27:15;;;;;;;;;;;2.80;99.90;;;;;;5015549;28;19988;-89
2021/12/02 03:30:06;;;;;;;;;;;2.80;99.90;;;;;;4998959;28;20021;-89
2021/12/02 03:32:34;;;;;;;;;;;2.80;99.90;;;;;;5000396;28;19938;-89
2021/12/02 03:35:11;;;;;;;;;;;2.90;99.90;;;;;;4998461;28;19987;-88
2021/12/02 03:38:07;;;;;;;;;;;;;;;;;;;;;
2021/12/02 03:40:36;;;;;;;;;;;3.00;99.90;;;;;;5015248;28;20373;-90
2021/12/02 03:43:47;;;;;;;;;;;;;;;;;;;;;
2021/12/02 03:52:22;;;;;;;;;;;3.00;99.90;;;;;;4996672;28;19933;-89
2021/12/02 03:58:09;;;;;;;;;;;3.00;99.90;;;;;;5007463;28;20345;-90
2021/12/02 04:00:55;;;;;;;;;;;;;;;;;;;;;
2021/12/02 04:04:15;;;;;;;;;;;;;;;;;;;;;
2021/12/02 04:07:07;;;;;;;;;;;;;;;;;;;;;
2021/12/02 04:09:42;;;;;;;;;;;2.70;99.90;;;;;;4997517;28;20318;-89
2021/12/02 04:18:33;;;;;;;;;;;2.60;99.90;;;;;;4994308;28;20362;-90
2021/12/02 04:24:21;;;;;;;;;;;2.50;99.90;;;;;;5009415;28;20385;-90
2021/12/02 04:27:19;;;;;;;;;;;2.50;99.90;;;;;;4997520;28;19930;-90
2021/12/02 04:30:02;;;;;;;;;;;2.50;99.90;;;;;;4984720;28;19976;-90
2021/12/02 04:33:04;;;;;;;;;;;;;;;;;;;;;
2021/12/02 04:35:32;;;;;;;;;;;2.40;99.90;;;;;;4995936;28;19983;-90
2021/12/02 04:40:57;;;;;;;;;;;;;;;;;;;;;
2021/12/02 04:43:28;;;;;;;;;;;2.40;99.90;;;;;;4999261;28;19926;-90
2021/12/02 04:49:16;;;;;;;;;;;;;;;;;;;;;
2021/12/02 04:51:57;;;;;;;;;;;2.30;99.90;;;;;;4994298;28;19925;-91
2021/12/02 04:54:31;;;;;;;;;;;2.20;99.90;;;;;;4984607;28;19926;-89
2021/12/02 05:00:23;;;;;;;;;;;2.30;99.90;;;;;;5007171;28;20043;-91
2021/12/02 05:06:21;;;;;;;;;;;;;;;;;;;;;
2021/12/02 05:09:06;;;;;;;;;;;2.30;99.90;;;;;;5012935;28;20374;-89
2021/12/02 05:14:59;;;;;;;;;;;2.30;99.90;;;;;;5014535;28;20020;-92
2021/12/02 05:23:42;;;;;;;;;;;;;;;;;;;;;
2021/12/02 05:26:23;;;;;;;;;;;;;;;;;;;;;
2021/12/02 05:32:11;;;;;;;;;;;2.60;99.90;;;;;;4989303;28;19936;-90
2021/12/02 05:34:39;;;;;;;;;;;2.80;99.90;;;;;;4996462;28;19925;-90
2021/12/02 05:40:24;;;;;;;;;;;2.80;99.90;;;;;;4991731;28;19971;-89
2021/12/02 05:45:48;;;;;;;;;;;2.80;99.90;;;;;;4998279;28;20428;-88
2021/12/02 05:48:40;;;;;;;;;;;2.80;99.90;;;;;;4931365;28;20103;-90
2021/12/02 05:51:41;;;;;;;;;;;;;;;;;;;;;
2021/12/02 05:54:38;;;;;;;;;;;;;;;;;;;;;
2021/12/02 06:00:21;;;;;;;;;;;3.00;99.90;;;;;;5008233;28;19925;-91
2021/12/02 06:06:15;;;;;;;;;;;;;;;;;;;;;
2021/12/02 06:12:09;;;;;;;;;;;3.10;99.90;;;;;;5008448;28;19932;-91
2021/12/02 06:15:05;;;;;;;;;;;;;;;;;;;;;
2021/12/02 06:17:56;;;;;;;;;;;3.10;99.90;;;;;;4968718;28;19925;-91
2021/12/02 06:20:47;;;;;;;;;;;;;;;;;;;;;
2021/12/02 06:23:43;;;;;;;;;;;3.10;99.90;;;;;;4998349;28;19980;-89
2021/12/02 06:29:49;;;;;;;;;;;3.10;99.90;;;;;;4998348;28;19937;-90
2021/12/02 06:32:36;;;;;;;;;;;;;;;;;;;;;
2021/12/02 06:35:14;;;;;;;;;;;2.90;99.90;;;;;;5001622;28;19925;-92
2021/12/02 06:47:05;;;;;;;;;;;3.00;99.90;;;;;;4995462;28;20382;-91
2021/12/02 06:50:00;;;;;;;;;;;2.90;99.90;;;;;;4985212;28;20008;-90
2021/12/02 06:52:52;;;;;;;;;;;2.90;99.90;;;;;;4998645;28;19926;-90
2021/12/02 06:55:26;;;;;;;;;;;3.00;99.90;;;;;;5000071;28;19925;-91
2021/12/02 06:58:01;;;;;;;;;;;;;;;;;;;;;
2021/12/02 07:00:51;;;;;;;;;;;;;;;;;;;;;
2021/12/02 07:03:53;;;;;;;;;;;3.10;99.90;;;;;;5015881;28;19925;-90
2021/12/02 07:12:47;;;;;;;;;;;3.10;99.90;;;;;;4998614;28;19977;-92
2021/12/02 07:24:52;;;;;;;;;;;3.10;99.90;;;;;;4986824;28;20328;-90
2021/12/02 07:30:43;;;;;;;;;;;;;;;;;;;;;
2021/12/02 07:33:23;;;;;;;;;;;3.10;99.90;;;;;;5001723;28;19925;-90
2021/12/02 07:36:03;;;;;;;;;;;3.10;99.90;;;;;;4985358;28;20403;-92
2021/12/02 07:38:47;;;;;;;;;;;3.00;99.90;;;;;;4984073;28;20297;-91
2021/12/02 07:41:27;;;;;;;;;;;3.00;99.90;;;;;;4997556;28;19929;-93
2021/12/02 07:43:55;;;;;;;;;;;3.00;99.90;;;;;;4984245;28;20019;-90
2021/12/02 07:46:21;;;;;;;;;;;3.00;99.90;;;;;;4998440;28;19972;-91
2021/12/02 07:49:00;;;;;;;;;;;;;;;;;;;;;
2021/12/02 07:51:33;;;;;;;;;;;3.00;99.90;;;;;;5000220;28;19933;-92
2021/12/02 08:00:27;;;;;;;;;;;;;;;;;;;;;
2021/12/02 08:06:11;;;;;;;;;;;2.80;99.90;;;;;;5013631;28;19979;-92
2021/12/02 08:09:16;;;;;;;;;;;;;;;;;;;;;
2021/12/02 08:12:19;;;;;;;;;;;2.70;99.90;;;;;;5014920;28;20389;-90
2021/12/02 08:14:54;;;;;;;;;;;2.60;99.90;;;;;;5000604;28;19980;-92
2021/12/02 08:17:30;;;;;;;;;;;2.50;99.90;;;;;;4982525;28;19925;-88
2021/12/02 08:20:01;;;;;;;;;;;2.50;99.90;;;;;;4983270;28;20348;-90
2021/12/02 08:22:27;;;;;;;;;;;2.40;99.90;;;;;;4997505;28;19953;-88
2021/12/02 08:25:03;;;;;;;;;;;2.30;99.90;;;;;;4982090;28;19925;-92
2021/12/02 08:28:09;;;;;;;;;;;2.30;99.90;;;;;;4983693;28;19930;-92
2021/12/02 08:30:49;;;;;;;;;;;2.30;99.90;;;;;;4996534;28;19929;-90
2021/12/02 08:33:21;;;;;;;;;;;2.30;99.90;;;;;;4983525;28;19929;-91
2021/12/02 08:35:51;;;;;;;;;;;2.30;99.90;;;;;;4982219;28;19972;-93
2021/12/02 08:38:31;;;;;;;;;;;2.30;99.90;;;;;;4981770;28;19947;-94
2021/12/02 08:41:31;;;;;;;;;;;2.30;99.90;;;;;;5014226;28;20313;-93
2021/12/02 08:43:59;;;;;;;;;;;2.30;99.90;;;;;;4983682;28;19932;-94
2021/12/02 08:46:49;;;;;;;;;;;;;;;;;;;;;
2021/12/02 08:49:39;;;;;;;;;;;2.40;99.90;;;;;;5000521;28;19925;-91
2021/12/02 08:52:26;;;;;;;;;;;2.40;99.90;;;;;;4999668;28;19972;-91
2021/12/02 08:55:23;;;;;;;;;;;2.40;99.90;;;;;;4998969;28;19929;-92
2021/12/02 08:57:52;;;;;;;;;;;2.50;99.90;;;;;;4997911;28;20020;-91
2021/12/02 09:00:48;;;;;;;;;;;2.40;99.90;;;;;;4997415;28;20028;-91
2021/12/02 09:03:23;;;;;;;;;;;2.50;99.90;;;;;;4999989;28;19925;-91
2021/12/02 09:11:32;;;;;;;;;;;2.80;99.90;;;;;;4992500;28;19929;-92
2021/12/02 09:14:24;;;;;;;;;;;3.00;99.90;;;;;;4997913;28;20293;-90
2021/12/02 09:16:52;;;;;;;;;;;3.20;99.90;;;;;;4999149;28;20346;-90
2021/12/02 09:19:23;;;;;;;;;;;3.30;99.90;;;;;;4981014;28;19980;-91
2021/12/02 09:21:57;;;;;;;;;;;3.40;99.90;;;;;;4997602;28;20031;-92
2021/12/02 09:24:36;;;;;;;;;;;3.40;99.90;;;;;;4982488;28;19972;-90
2021/12/02 09:27:11;;;;;;;;;;;3.50;99.90;;;;;;4997859;28;19925;-91
2021/12/02 09:29:59;;;;;;;;;;;3.50;99.90;;;;;;4980328;28;20288;-91
2021/12/02 09:32:38;;;;;;;;;;;3.60;99.90;;;;;;4996042;28;20289;-90
2021/12/02 09:35:09;;;;;;;;;;;3.60;99.90;;;;;;4982561;28;19926;-93
2021/12/02 09:38:07;;;;;;;;;;;;;;;;;;;;;
2021/12/02 09:40:46;;;;;;;;;;;;;;;;;;;;;
2021/12/02 09:44:00;;;;;;;;;;;;;;;;;;;;;
2021/12/02 09:46:40;;;;;;;;;;;3.70;99.90;;;;;;5008053;28;19926;-92
2021/12/02 09:49:10;;;;;;;;;;;3.70;99.90;;;;;;4981341;28;20328;-93
2021/12/02 09:52:29;;;;;;;;;;;3.70;99.90;;;;;;4980701;28;19965;-91
2021/12/02 09:54:39;;;;;;;;;;;3.70;99.90;;;;;;4992726;28;19932;-91
2021/12/02 09:57:24;;;;;;;;;;;;;;;;;;;;;
2021/12/02 09:59:54;;;;;;;;;;;3.90;99.90;;;;;;4998083;28;19926;-92
2021/12/02 10:02:41;;;;;;;;;;;4.00;99.90;;;;;;4998921;28;19933;-92
2021/12/02 10:05:48;;;;;;;;;;;;;;;;;;;;;
2021/12/02 10:08:30;;;;;;;;;;;4.00;99.90;;;;;;5013136;28;19936;-92
2021/12/02 10:11:21;;;;;;;;;;;4.10;99.90;;;;;;4997536;28;19979;-93
2021/12/02 10:16:49;;;;;;;;;;;4.10;99.90;;;;;;4996590;28;19949;-91
2021/12/02 10:22:11;;;;;;;;;;;4.30;99.90;;;;;;5012911;28;19926;-94
2021/12/02 10:25:18;;;;;;;;;;;4.30;99.90;;;;;;4996258;28;19925;-93
2021/12/02 10:28:12;;;;;;;;;;;4.30;99.90;;;;;;4983578;28;19933;-93
2021/12/02 10:31:14;;;;;;;;;;;4.20;99.90;;;;;;4996551;28;20306;-94
2021/12/02 10:34:37;;;;;;;;;;;4.20;99.90;;;;;;5012497;28;19930;-92
2021/12/02 10:37:21;;;;;;;;;;;;;;;;;;;;;
2021/12/02 10:40:14;;;;;;;;;;;4.10;99.90;;;;;;4999467;28;19926;-95
2021/12/02 10:43:05;;;;;;;;;;;4.00;99.90;;;;;;4983054;28;19981;-96
2021/12/02 10:48:51;;;;;;;;;;;4.00;99.90;;;;;;4996398;28;19929;-94
2021/12/02 10:51:39;;;;;;;;;;;4.00;99.90;;;;;;5014245;28;19981;-92
2021/12/02 10:54:13;;;;;;;;;;;3.90;99.90;;;;;;4997346;28;20015;-94
2021/12/02 10:56:50;;;;;;;;;;;;;;;;;;;;;
2021/12/02 10:59:39;;;;;;;;;;;3.80;99.90;;;;;;4998716;28;20354;-95
2021/12/02 11:02:45;;;;;;;;;;;3.80;99.90;;;;;;4996302;28;19926;-93
2021/12/02 11:08:22;;;;;;;;;;;3.80;99.90;;;;;;4984883;28;19926;-94
2021/12/02 11:11:09;;;;;;;;;;;;;;;;;;;;;
2021/12/02 11:14:00;;;;;;;;;;;3.70;99.90;;;;;;5015329;28;19939;-93
2021/12/02 11:17:00;;;;;;;;;;;3.70;99.90;;;;;;5000110;28;20320;-93
2021/12/02 11:19:46;;;;;;;;;;;3.70;99.90;;;;;;4999938;28;19929;-93
2021/12/02 11:22:30;;;;;;;;;;;;;;;;;;;;;
2021/12/02 11:25:31;;;;;;;;;;;3.50;99.90;;;;;;5001760;28;19929;-95
2021/12/02 11:28:21;;;;;;;;;;;3.30;99.90;;;;;;5002207;28;19926;-93
2021/12/02 11:34:19;;;;;;;;;;;;;;;;;;;;;
2021/12/02 11:36:50;;;;;;;;;;;3.30;99.90;;;;;;5011687;28;20272;-92
2021/12/02 11:39:21;;;;;;;;;;;3.20;99.90;;;;;;4983532;28;19925;-92
2021/12/02 11:41:49;;;;;;;;;;;3.10;99.90;;;;;;4999608;28;20284;-92
2021/12/02 11:44:15;;;;;;;;;;;3.00;99.90;;;;;;4984426;28;20305;-91
2021/12/02 11:46:40;;;;;;;;;;;2.80;99.90;;;;;;4986016;28;19932;-90
2021/12/02 11:49:19;;;;;;;;;;;2.70;99.90;;;;;;4986236;28;19999;-93
2021/12/02 11:51:47;;;;;;;;;;;2.60;99.90;;;;;;4989681;28;19933;-92
2021/12/02 11:54:33;;;;;;;;;;;2.50;99.90;;;;;;4982876;28;19968;-89
2021/12/02 11:57:13;;;;;;;;;;;2.50;99.90;;;;;;4984840;28;19937;-89
2021/12/02 11:59:44;;;;;;;;;;;2.40;99.90;;;;;;4986079;28;19932;-93
2021/12/02 12:02:12;;;;;;;;;;;2.40;99.90;;;;;;4987536;28;19972;-94
2021/12/02 12:05:03;;;;;;;;;;;2.40;99.90;;;;;;4991233;28;19932;-95
2021/12/02 12:07:53;;;;;;;;;;;;;;;;;;;;;
2021/12/02 12:10:44;;;;;;;;;;;2.30;99.90;;;;;;5001203;28;19926;-93
2021/12/02 12:13:23;;;;;;;;;;;2.30;99.90;;;;;;5002169;28;20020;-94
2021/12/02 12:16:10;;;;;;;;;;;2.20;99.90;;;;;;5000871;28;19925;-95
2021/12/02 12:18:42;;;;;;;;;;;2.20;99.90;;;;;;4999443;28;19925;-95
2021/12/02 12:21:49;;;;;;;;;;;2.20;99.90;;;;;;4983294;28;20428;-95
2021/12/02 12:24:15;;;;;;;;;;;2.20;99.90;;;;;;5014968;28;20370;-94
2021/12/02 12:26:50;;;;;;;;;;;2.20;99.90;;;;;;4981672;28;19926;-95
2021/12/02 12:29:21;;;;;;;;;;;2.20;99.90;;;;;;4982785;28;19969;-94
2021/12/02 12:32:07;;;;;;;;;;;;;;;;;;;;;
2021/12/02 12:34:59;;;;;;;;;;;;;;;;;;;;;
2021/12/02 12:37:49;;;;;;;;;;;2.30;99.90;;;;;;5015751;28;20379;-94
2021/12/02 12:40:25;;;;;;;;;;;2.40;99.90;;;;;;4996756;28;19929;-93
2021/12/02 12:43:02;;;;;;;;;;;2.50;99.90;;;;;;4986473;28;19956;-96
2021/12/02 12:45:43;;;;;;;;;;;2.70;99.90;;;;;;4999444;28;19936;-95
2021/12/02 12:48:18;;;;;;;;;;;2.90;99.90;;;;;;4988462;28;19933;-95
2021/12/02 12:54:05;;;;;;;;;;;3.20;99.90;;;;;;5002313;28;20004;-95
2021/12/02 12:56:37;;;;;;;;;;;3.20;99.90;;;;;;4992881;28;19929;-93
2021/12/02 12:59:46;;;;;;;;;;;3.20;99.90;;;;;;5016508;28;19925;-95
2021/12/02 13:02:13;;;;;;;;;;;3.10;99.90;;;;;;5001635;28;19925;-94
2021/12/02 13:07:54;;;;;;;;;;;2.90;99.90;;;;;;5006962;28;19925;-94
2021/12/02 13:13:37;;;;;;;;;;;2.90;99.90;;;;;;5017180;28;20016;-95
2021/12/02 13:16:25;;;;;;;;;;;2.90;99.90;;;;;;4990916;28;19949;-95
2021/12/02 13:19:17;;;;;;;;;;;2.90;99.90;;;;;;5020043;28;19949;-95
2021/12/02 13:21:53;;;;;;;;;;;2.80;99.90;;;;;;5005915;28;19972;-94
2021/12/02 13:24:41;;;;;;;;;;;2.90;99.90;;;;;;5139476;23;19929;-94
2021/12/02 13:30:13;;;;;;;;;;;2.90;99.90;;;;;;5023049;28;19956;-95
2021/12/02 13:39:12;;;;;;;;;;;2.90;99.90;;;;;;5046998;28;19940;-94
2021/12/02 13:41:51;;;;;;;;;;;2.80;99.90;;;;;;5021852;28;19979;-95
2021/12/02 13:44:49;;;;;;;;;;;2.90;99.90;;;;;;5037526;28;19932;-92
2021/12/02 13:47:51;;;;;;;;;;;;;;;;;;;;;
2021/12/02 13:50:36;;;;;;;;;;;2.80;99.90;;;;;;5037550;28;20387;-94
2021/12/02 13:53:04;;;;;;;;;;;2.90;99.90;;;;;;5036505;28;19946;-93
2021/12/02 13:58:49;;;;;;;;;;;2.80;99.90;;;;;;5030529;28;19925;-94
2021/12/02 14:04:40;;;;;;;;;;;;;;;;;;;;;
2021/12/02 14:10:09;;;;;;;;;;;2.70;99.90;;;;;;5025766;28;19928;-95
2021/12/02 14:12:58;;;;;;;;;;;2.80;99.90;;;;;;5038294;28;20027;-96
2021/12/02 14:15:49;;;;;;;;;;;2.80;99.90;;;;;;5045239;28;19929;-96
2021/12/02 14:18:51;;;;;;;;;;;2.70;99.90;;;;;;5063380;28;19931;-95
2021/12/02 14:21:38;;;;;;;;;;;;;;;;;;;;;
2021/12/02 14:24:07;;;;;;;;;;;2.70;99.90;;;;;;5037986;28;19925;-96
2021/12/02 14:26:38;;;;;;;;;;;2.70;99.90;;;;;;5021542;28;20254;-96
2021/12/02 14:29:26;;;;;;;;;;;2.70;99.90;;;;;;5024019;28;19925;-96
2021/12/02 14:32:01;;;;;;;;;;;2.60;99.90;;;;;;5038514;28;19932;-96
2021/12/02 14:34:27;;;;;;;;;;;2.60;99.90;;;;;;5024974;28;19931;-94
2021/12/02 14:37:00;;;;;;;;;;;2.60;99.90;;;;;;5035598;28;20374;-94
2021/12/02 14:39:39;;;;;;;;;;;2.50;99.90;;;;;;5069187;28;19925;-94
2021/12/02 14:42:17;;;;;;;;;;;2.50;99.90;;;;;;5036864;28;19932;-94
2021/12/02 14:44:50;;;;;;;;;;;2.50;99.90;;;;;;5020844;28;19932;-94
2021/12/02 14:47:20;;;;;;;;;;;2.40;99.90;;;;;;5035752;28;19963;-95
2021/12/02 14:49:48;;;;;;;;;;;2.50;99.90;;;;;;5020824;28;20447;-93
2021/12/02 14:52:21;;;;;;;;;;;2.30;99.90;;;;;;5039940;28;19932;-93
2021/12/02 14:55:01;;;;;;;;;;;2.40;99.90;;;;;;5024121;28;20023;-94
2021/12/02 14:57:28;;;;;;;;;;;2.30;99.90;;;;;;5025449;28;20407;-93
2021/12/02 15:00:27;;;;;;;;;;;2.30;99.90;;;;;;5023686;28;20023;-92
2021/12/02 15:03:02;;;;;;;;;;;2.30;99.90;;;;;;5021919;28;20015;-93
2021/12/02 15:05:36;;;;;;;;;;;2.30;99.90;;;;;;5023415;28;19925;-94
2021/12/02 15:08:07;;;;;;;;;;;2.30;99.90;;;;;;5040620;28;19925;-92
2021/12/02 15:10:38;;;;;;;;;;;2.20;99.90;;;;;;5039995;28;19925;-93
2021/12/02 15:13:10;;;;;;;;;;;2.20;99.90;;;;;;5039424;28;19932;-91
2021/12/02 15:15:40;;;;;;;;;;;2.10;99.90;;;;;;5040456;28;19974;-93
2021/12/02 15:18:08;;;;;;;;;;;2.00;99.90;;;;;;5023119;28;19929;-91
2021/12/02 15:20:37;;;;;;;;;;;2.10;99.90;;;;;;5040014;28;19987;-94
2021/12/02 15:23:10;;;;;;;;;;;2.00;99.90;;;;;;5023403;28;20367;-92
2021/12/02 15:25:41;;;;;;;;;;;2.00;99.90;;;;;;5055634;28;19924;-94
2021/12/02 15:28:22;;;;;;;;;;;1.90;99.90;;;;;;5039727;28;19924;-93
2021/12/02 15:31:08;;;;;;;;;;;1.90;99.90;;;;;;5039395;28;19925;-93
2021/12/02 15:33:48;;;;;;;;;;;1.80;99.90;;;;;;5039673;28;19933;-94
2021/12/02 15:36:18;;;;;;;;;;;1.80;99.90;;;;;;5038965;28;20368;-93
2021/12/02 15:38:54;;;;;;;;;;;1.80;99.90;;;;;;5039221;28;19925;-94
2021/12/02 15:41:22;;;;;;;;;;;1.80;99.90;;;;;;5039851;28;19925;-93
2021/12/02 15:43:54;;;;;;;;;;;1.80;99.90;;;;;;5022648;28;20016;-93
2021/12/02 15:46:31;;;;;;;;;;;1.80;99.90;;;;;;5023067;28;19974;-94
2021/12/02 15:48:57;;;;;;;;;;;1.80;99.90;;;;;;5023475;28;20016;-93
2021/12/02 15:51:34;;;;;;;;;;;1.70;99.90;;;;;;5039032;28;19929;-92
2021/12/02 15:54:11;;;;;;;;;;;1.70;99.90;;;;;;5023095;28;19931;-92
2021/12/02 15:56:47;;;;;;;;;;;1.70;99.90;;;;;;5023649;28;19975;-92
2021/12/02 15:59:24;;;;;;;;;;;1.70;99.90;;;;;;5039027;28;20015;-93
2021/12/02 16:07:15;;;;;;;;;;;1.50;99.90;;;;;;5020056;28;19999;-92
2021/12/02 16:12:38;;;;;;;;;;;1.40;99.90;;;;;;5040871;28;20373;-94
2021/12/02 16:15:11;;;;;;;;;;;1.40;99.90;;;;;;5023788;28;20328;-92
2021/12/02 16:17:42;;;;;;;;;;;1.40;99.90;;;;;;5023087;28;19946;-90
2021/12/02 16:20:25;;;;;;;;;;;1.40;99.90;;;;;;5022297;28;19976;-93
2021/12/02 16:22:56;;;;;;;;;;;1.40;99.90;;;;;;5041059;28;19924;-92
2021/12/02 16:25:26;;;;;;;;;;;1.30;99.90;;;;;;5037245;28;19991;-94
2021/12/02 16:28:05;;;;;;;;;;;1.30;99.90;;;;;;5022976;28;20439;-93
2021/12/02 16:30:33;;;;;;;;;;;1.30;99.90;;;;;;5022348;28;19932;-94
2021/12/02 16:33:06;;;;;;;;;;;1.30;99.90;;;;;;5038949;28;19971;-91
2021/12/02 16:35:37;;;;;;;;;;;1.30;99.90;;;;;;5054519;28;19968;-92
2021/12/02 16:38:14;;;;;;;;;;;1.20;99.90;;;;;;5024440;28;19931;-94
2021/12/02 16:40:47;;;;;;;;;;;1.10;99.90;;;;;;5054727;28;19932;-92
2021/12/02 16:43:14;;;;;;;;;;;1.20;99.90;;;;;;5038382;28;20262;-93
2021/12/02 16:45:44;;;;;;;;;;;1.20;99.90;;;;;;5037287;28;19925;-92
2021/12/02 16:48:17;;;;;;;;;;;1.20;99.90;;;;;;5021940;28;20293;-93
2021/12/02 16:50:47;;;;;;;;;;;1.20;99.90;;;;;;5038321;28;20285;-93
2021/12/02 16:53:15;;;;;;;;;;;1.10;99.90;;;;;;5038093;28;19925;-92
2021/12/02 16:55:43;;;;;;;;;;;1.20;99.90;;;;;;5021321;28;19925;-93
2021/12/02 16:58:12;;;;;;;;;;;1.10;99.90;;;;;;5021685;28;19948;-93
2021/12/02 17:00:40;;;;;;;;;;;1.10;99.90;;;;;;5020763;28;19932;-92
2021/12/02 17:03:12;;;;;;;;;;;1.10;99.90;;;;;;5022463;28;20273;-93
2021/12/02 17:08:26;;;;;;;;;;;1.10;99.90;;;;;;5039671;28;19951;-93
2021/12/02 17:10:54;;;;;;;;;;;1.10;99.90;;;;;;5021199;28;19974;-93
2021/12/02 17:13:23;;;;;;;;;;;1.00;99.90;;;;;;5037073;28;20015;-92
2021/12/02 17:15:51;;;;;;;;;;;1.10;99.90;;;;;;5037757;28;20007;-92
2021/12/02 17:18:19;;;;;;;;;;;1.00;99.90;;;;;;5020980;28;19925;-92
2021/12/02 17:20:49;;;;;;;;;;;1.00;99.90;;;;;;5021188;28;19929;-93
2021/12/02 17:23:18;;;;;;;;;;;1.00;99.90;;;;;;5037584;28;19932;-92
2021/12/02 17:25:51;;;;;;;;;;;1.10;99.90;;;;;;5020235;28;19964;-93
2021/12/02 17:28:17;;;;;;;;;;;1.10;99.90;;;;;;5021917;28;19932;-91
2021/12/02 17:30:42;;;;;;;;;;;1.10;99.90;;;;;;5036647;28;20273;-93
2021/12/02 17:33:10;;;;;;;;;;;1.00;99.90;;;;;;5020788;28;20042;-93
2021/12/02 17:35:38;;;;;;;;;;;1.10;99.90;;;;;;5019969;28;20385;-93
2021/12/02 17:38:06;;;;;;;;;;;1.10;99.90;;;;;;5020864;28;19925;-92
2021/12/02 17:40:34;;;;;;;;;;;1.10;99.90;;;;;;5021434;28;19979;-91
2021/12/02 17:43:04;;;;;;;;;;;1.10;99.90;;;;;;5038397;28;20316;-92
2021/12/02 17:45:30;;;;;;;;;;;1.20;99.90;;;;;;5039007;28;19925;-91
2021/12/02 17:47:58;;;;;;;;;;;1.20;99.90;;;;;;5037253;28;19929;-93
2021/12/02 17:50:30;;;;;;;;;;;1.20;99.90;;;;;;5053063;28;19932;-92
2021/12/02 17:53:09;;;;;;;;;;;;;;;;;;;;;
2021/12/02 17:55:42;;;;;;;;;;;1.20;99.90;;;;;;5037842;28;19931;-92
2021/12/02 17:58:10;;;;;;;;;;;1.30;99.90;;;;;;5020279;28;19932;-93
2021/12/02 18:00:36;;;;;;;;;;;1.30;99.90;;;;;;5036171;28;20280;-92
2021/12/02 18:03:22;;;;;;;;;;;1.30;99.90;;;;;;5036910;28;19928;-91
2021/12/02 18:06:08;;;;;;;;;;;1.30;99.90;;;;;;5038208;28;19931;-93
2021/12/02 18:08:37;;;;;;;;;;;1.30;99.90;;;;;;5036805;28;19925;-92
2021/12/02 18:11:11;;;;;;;;;;;1.30;99.90;;;;;;5036476;28;19925;-93
2021/12/02 18:13:39;;;;;;;;;;;1.30;99.90;;;;;;5036226;28;19929;-92
2021/12/02 18:16:08;;;;;;;;;;;1.30;99.90;;;;;;5036666;28;19925;-94
2021/12/02 18:18:42;;;;;;;;;;;1.20;99.90;;;;;;5020876;28;19955;-93
2021/12/02 18:21:17;;;;;;;;;;;1.20;99.90;;;;;;5036783;28;19932;-92
2021/12/02 18:23:43;;;;;;;;;;;1.20;99.90;;;;;;5019943;28;19971;-92
2021/12/02 18:26:12;;;;;;;;;;;1.20;99.90;;;;;;5022279;28;19972;-93
2021/12/02 18:28:51;;;;;;;;;;;;;;;;;;;;;
2021/12/02 18:31:19;;;;;;;;;;;1.20;99.90;;;;;;5042639;28;19925;-92
2021/12/02 18:33:52;;;;;;;;;;;1.20;99.90;;;;;;5040272;28;20281;-93
2021/12/02 18:36:20;;;;;;;;;;;1.20;99.90;;;;;;5057142;28;19992;-93
2021/12/02 18:38:51;;;;;;;;;;;1.20;99.90;;;;;;5039802;28;19975;-92
2021/12/02 18:41:19;;;;;;;;;;;1.20;99.90;;;;;;5024284;28;19936;-91
2021/12/02 18:43:52;;;;;;;;;;;1.20;99.90;;;;;;5039959;28;19925;-92
2021/12/02 18:46:18;;;;;;;;;;;1.10;99.90;;;;;;5023770;28;19925;-93
2021/12/02 18:49:00;;;;;;;;;;;1.10;99.90;;;;;;5039878;28;19929;-92
2021/12/02 18:51:32;;;;;;;;;;;1.10;99.90;;;;;;5024828;28;20338;-91
2021/12/02 18:54:00;;;;;;;;;;;1.10;99.90;;;;;;5040649;28;19940;-92
2021/12/02 18:56:26;;;;;;;;;;;1.20;99.90;;;;;;5056203;28;19929;-91
2021/12/02 18:58:57;;;;;;;;;;;1.30;99.90;;;;;;5023104;28;19928;-91
2021/12/02 19:01:27;;;;;;;;;;;1.40;99.90;;;;;;5023704;28;19978;-92
2021/12/02 19:03:53;;;;;;;;;;;1.50;99.90;;;;;;5023030;28;20376;-92
2021/12/02 19:06:30;;;;;;;;;;;1.50;99.90;;;;;;5023083;28;19932;-92
2021/12/02 19:09:22;;;;;;;;;;;1.60;99.90;;;;;;5024103;28;19936;-91
2021/12/02 19:28:04;;;;;;;;;;;1.60;99.90;;;;;;5055809;28;19932;-94
2021/12/02 19:30:29;;;;;;;;;;;1.50;99.90;;;;;;5022393;28;19925;-93
2021/12/02 19:32:58;;;;;;;;;;;1.50;99.90;;;;;;5038027;28;20104;-92
2021/12/02 19:35:24;;;;;;;;;;;1.40;99.90;;;;;;5043730;28;19925;-94
2021/12/02 19:37:50;;;;;;;;;;;1.30;99.90;;;;;;5024460;28;20017;-91
2021/12/02 19:40:16;;;;;;;;;;;1.30;99.90;;;;;;5039775;28;19935;-93
2021/12/02 19:42:41;;;;;;;;;;;1.30;99.90;;;;;;5022090;28;19925;-92
2021/12/02 19:45:15;;;;;;;;;;;1.30;99.90;;;;;;5022646;28;19925;-93
2021/12/02 19:47:46;;;;;;;;;;;1.20;99.90;;;;;;5024040;28;19925;-94
2021/12/02 19:50:29;;;;;;;;;;;1.20;99.90;;;;;;5038823;28;19978;-91
2021/12/02 19:53:02;;;;;;;;;;;1.10;99.90;;;;;;5022890;28;19970;-92
2021/12/02 19:55:39;;;;;;;;;;;1.10;99.90;;;;;;5022615;28;19925;-93
2021/12/02 19:58:25;;;;;;;;;;;1.10;99.90;;;;;;5023674;28;20392;-92
2021/12/02 20:00:53;;;;;;;;;;;1.00;99.90;;;;;;5024602;28;19948;-92
2021/12/02 20:03:39;;;;;;;;;;;;;;;;;;;;;
2021/12/02 20:06:10;;;;;;;;;;;1.00;99.90;;;;;;5054398;28;19924;-92
2021/12/02 20:08:56;;;;;;;;;;;1.00;99.90;;;;;;5023180;28;19971;-92
2021/12/02 20:11:25;;;;;;;;;;;1.00;99.90;;;;;;5022171;28;20285;-93
2021/12/02 20:13:53;;;;;;;;;;;0.90;99.90;;;;;;5021132;28;19932;-92
2021/12/02 20:16:33;;;;;;;;;;;0.90;99.90;;;;;;5021937;28;19925;-93
2021/12/02 20:19:15;;;;;;;;;;;;;;;;;;;;;
2021/12/02 20:22:01;;;;;;;;;;;0.90;99.90;;;;;;5056087;28;20333;-94
2021/12/02 20:24:34;;;;;;;;;;;0.90;99.90;;;;;;5024240;28;19932;-93
2021/12/02 20:27:01;;;;;;;;;;;1.00;99.90;;;;;;5021900;28;19925;-93